createdAt,value
2022-12-23T00:02:23.414Z,67.23
2022-12-23T00:05:08.656Z,68.11
2022-12-23T00:07:53.462Z,67.25
2022-12-23T00:10:38.153Z,69.05
2022-12-23T00:13:23.114Z,67.79
2022-12-23T00:16:07.851Z,67.29
2022-12-23T00:18:52.727Z,66.89
2022-12-23T00:21:37.505Z,69.19
2022-12-23T00:24:22.383Z,69.35
2022-12-23T00:27:07.085Z,68.63
2022-12-23T00:29:51.909Z,68.96
2022-12-23T00:32:36.712Z,69.98
2022-12-23T00:35:21.498Z,69.44
2022-12-23T00:38:06.279Z,69.26
2022-12-23T00:40:50.978Z,69.77
2022-12-23T00:43:35.823Z,69.30
2022-12-23T00:46:20.611Z,69.34
2022-12-23T00:49:05.391Z,68.19
2022-12-23T00:51:50.267Z,68.26
2022-12-23T00:54:35.097Z,66.66
2022-12-23T00:57:19.856Z,67.89
2022-12-23T01:00:04.557Z,69.71
2022-12-23T01:02:49.557Z,67.76
2022-12-23T01:05:34.663Z,69.83
2022-12-23T01:08:19.437Z,68.49
2022-12-23T01:11:04.137Z,67.85
2022-12-23T01:13:48.742Z,68.74
2022-12-23T01:16:33.432Z,68.52
2022-12-23T01:19:18.255Z,67.88
2022-12-23T01:22:02.954Z,67.26
2022-12-23T01:24:47.780Z,67.87
2022-12-23T01:27:32.529Z,68.86
2022-12-23T01:30:17.215Z,68.36
2022-12-23T01:33:02.101Z,67.57
2022-12-23T01:35:46.825Z,68.04
2022-12-23T01:38:31.454Z,67.55
2022-12-23T01:41:16.185Z,68.21
2022-12-23T01:44:01.044Z,69.37
2022-12-23T01:46:45.755Z,69.04
2022-12-23T01:49:30.629Z,70.29
2022-12-23T01:52:15.362Z,71.40
2022-12-23T01:55:00.198Z,70.88
2022-12-23T01:57:44.996Z,71.04
2022-12-23T02:00:29.773Z,71.98
2022-12-23T02:03:14.692Z,71.93
2022-12-23T02:05:59.778Z,71.05
2022-12-23T02:08:44.466Z,71.71
2022-12-23T02:11:29.120Z,71.05
2022-12-23T02:14:13.976Z,70.62
2022-12-23T02:16:58.753Z,71.78
2022-12-23T02:19:44.137Z,72.55
2022-12-23T02:22:28.942Z,72.79
2022-12-23T02:25:13.744Z,73.21
2022-12-23T02:27:58.508Z,73.37
2022-12-23T02:30:43.282Z,72.40
2022-12-23T02:33:27.968Z,72.84
2022-12-23T02:36:12.599Z,72.16
2022-12-23T02:38:57.581Z,71.57
2022-12-23T02:41:42.153Z,71.18
2022-12-23T02:44:26.854Z,70.50
2022-12-23T02:47:11.593Z,69.56
2022-12-23T02:49:56.364Z,69.66
2022-12-23T02:52:41.063Z,70.19
2022-12-23T02:55:25.868Z,69.34
2022-12-23T02:58:10.666Z,71.16
2022-12-23T03:00:55.300Z,70.22
2022-12-23T03:03:40.157Z,70.78
2022-12-23T03:06:25.217Z,70.73
2022-12-23T03:09:09.928Z,69.86
2022-12-23T03:11:54.598Z,70.84
2022-12-23T03:14:39.865Z,69.32
2022-12-23T03:17:24.653Z,70.04
2022-12-23T03:20:09.474Z,69.83
2022-12-23T03:22:54.176Z,70.73
2022-12-23T03:25:38.835Z,71.56
2022-12-23T03:28:23.611Z,70.61
2022-12-23T03:31:08.350Z,70.85
2022-12-23T03:33:53.166Z,70.88
2022-12-23T03:36:37.876Z,69.87
2022-12-23T03:39:22.649Z,70.66
2022-12-23T03:42:07.278Z,69.45
2022-12-23T03:45:27.820Z,70.85
2022-12-23T03:47:56.985Z,70.45
2022-12-23T03:50:41.746Z,70.57
2022-12-23T03:53:26.631Z,71.27
2022-12-23T03:56:11.269Z,72.67
2022-12-23T03:58:56.052Z,72.06
2022-12-23T04:01:40.817Z,71.24
2022-12-23T04:04:25.965Z,72.14
2022-12-23T04:07:10.762Z,70.97
2022-12-23T04:09:55.532Z,71.43
2022-12-23T04:12:40.284Z,71.17
2022-12-23T04:15:24.874Z,70.98
2022-12-23T04:18:09.688Z,70.92
2022-12-23T04:20:54.419Z,71.40
2022-12-23T04:23:39.363Z,70.44
2022-12-23T04:26:24.117Z,71.85
2022-12-23T04:29:08.851Z,71.52
2022-12-23T04:31:53.706Z,71.62
2022-12-23T04:34:38.952Z,71.13
2022-12-23T04:37:23.719Z,70.86
2022-12-23T04:40:08.517Z,71.73
2022-12-23T04:42:53.400Z,71.14
2022-12-23T04:45:38.167Z,71.38
2022-12-23T04:48:22.855Z,69.70
2022-12-23T04:51:07.583Z,70.28
2022-12-23T04:53:52.290Z,71.30
2022-12-23T04:56:36.981Z,70.02
2022-12-23T04:59:21.824Z,71.20
2022-12-23T05:02:06.748Z,70.46
2022-12-23T05:04:51.807Z,70.77
2022-12-23T05:07:36.586Z,69.40
2022-12-23T05:10:21.291Z,69.55
2022-12-23T05:13:06.108Z,70.40
2022-12-23T05:15:50.931Z,70.38
2022-12-23T05:18:35.740Z,70.73
2022-12-23T05:21:20.578Z,71.69
2022-12-23T05:24:05.277Z,71.09
2022-12-23T05:26:55.671Z,72.51
2022-12-23T05:29:44.381Z,70.95
2022-12-23T05:32:29.088Z,71.32
2022-12-23T05:35:13.915Z,71.18
2022-12-23T05:37:58.637Z,70.54
2022-12-23T05:40:43.448Z,71.72
2022-12-23T05:43:28.652Z,71.84
2022-12-23T05:46:13.610Z,71.44
2022-12-23T05:48:58.714Z,70.76
2022-12-23T05:51:43.606Z,70.11
2022-12-23T05:54:28.260Z,70.00
2022-12-23T05:57:13.050Z,71.20
2022-12-23T05:59:57.739Z,71.37
2022-12-23T06:02:45.097Z,72.00
2022-12-23T06:05:32.354Z,70.84
2022-12-23T06:08:17.173Z,71.42
2022-12-23T06:11:01.860Z,71.80
2022-12-23T06:13:46.799Z,71.47
2022-12-23T06:16:31.721Z,71.31
2022-12-23T06:19:16.557Z,70.45
2022-12-23T06:22:01.240Z,69.97
2022-12-23T06:24:46.028Z,69.37
2022-12-23T06:27:30.640Z,70.31
2022-12-23T06:30:15.477Z,71.29
2022-12-23T06:33:00.189Z,71.04
2022-12-23T06:35:44.956Z,71.46
2022-12-23T06:38:29.739Z,71.09
2022-12-23T06:41:14.550Z,71.14
2022-12-23T06:43:59.353Z,71.07
2022-12-23T06:46:44.015Z,70.25
2022-12-23T06:49:28.811Z,71.07
2022-12-23T06:52:13.603Z,71.81
2022-12-23T06:54:58.362Z,72.33
2022-12-23T06:57:43.083Z,71.23
2022-12-23T07:00:27.902Z,71.24
2022-12-23T07:03:12.801Z,71.19
2022-12-23T07:05:57.984Z,71.20
2022-12-23T07:08:42.833Z,71.50
2022-12-23T07:11:27.570Z,71.42
2022-12-23T07:14:12.346Z,69.87
2022-12-23T07:16:57.032Z,69.63
2022-12-23T07:19:41.750Z,70.33
2022-12-23T07:22:26.394Z,71.35
2022-12-23T07:25:11.168Z,70.74
2022-12-23T07:27:55.840Z,70.82
2022-12-23T07:30:40.599Z,70.94
2022-12-23T07:33:25.489Z,70.62
2022-12-23T07:36:10.275Z,69.16
2022-12-23T07:38:54.960Z,69.92
2022-12-23T07:41:39.593Z,69.47
2022-12-23T07:44:24.480Z,69.02
2022-12-23T07:47:09.211Z,71.72
2022-12-23T07:49:54.003Z,72.03
2022-12-23T07:52:38.717Z,71.62
2022-12-23T07:55:23.480Z,72.19
2022-12-23T07:58:08.223Z,71.86
2022-12-23T08:00:52.889Z,71.57
2022-12-23T08:03:37.768Z,71.68
2022-12-23T08:06:22.875Z,72.27
2022-12-23T08:09:07.618Z,71.76
2022-12-23T08:11:52.523Z,72.38
2022-12-23T08:14:37.281Z,71.30
2022-12-23T08:17:22.043Z,72.05
2022-12-23T08:20:07.272Z,71.27
2022-12-23T08:22:51.922Z,71.09
2022-12-23T08:25:36.762Z,70.62
2022-12-23T08:28:21.419Z,70.53
2022-12-23T08:31:06.418Z,70.75
2022-12-23T08:33:51.584Z,71.83
2022-12-23T08:36:36.358Z,72.07
2022-12-23T08:39:21.099Z,72.36
2022-12-23T08:42:05.683Z,71.85
2022-12-23T08:44:50.500Z,72.62
2022-12-23T08:47:35.127Z,71.96
2022-12-23T08:50:19.981Z,71.36
2022-12-23T08:53:04.551Z,71.16
2022-12-23T08:55:49.321Z,71.58
2022-12-23T08:58:33.877Z,70.79
2022-12-23T09:01:18.787Z,70.72
2022-12-23T09:04:03.591Z,69.68
2022-12-23T09:06:48.350Z,69.35
2022-12-23T09:09:33.372Z,70.05
2022-12-23T09:12:18.016Z,69.10
2022-12-23T09:15:02.882Z,68.76
2022-12-23T09:17:47.510Z,69.45
2022-12-23T09:20:32.373Z,69.24
2022-12-23T09:23:17.018Z,70.17
2022-12-23T09:26:01.877Z,70.25
2022-12-23T09:28:46.613Z,69.60
2022-12-23T09:31:36.804Z,69.33
2022-12-23T09:34:22.763Z,70.09
2022-12-23T09:37:07.460Z,68.51
2022-12-23T09:39:52.491Z,68.90
2022-12-23T09:42:37.644Z,68.55
2022-12-23T09:45:22.290Z,69.20
2022-12-23T09:48:07.189Z,69.33
2022-12-23T09:50:51.874Z,69.66
2022-12-23T09:53:36.562Z,69.92
2022-12-23T09:56:21.173Z,68.86
2022-12-23T09:59:06.105Z,68.74
2022-12-23T10:01:50.934Z,68.84
2022-12-23T10:04:36.192Z,69.04
2022-12-23T10:07:20.945Z,68.52
2022-12-23T10:10:05.676Z,68.75
2022-12-23T10:12:50.535Z,69.43
2022-12-23T10:15:35.268Z,69.75
2022-12-23T10:18:20.078Z,70.22
2022-12-23T10:21:04.894Z,69.43
2022-12-23T10:23:49.703Z,70.13
2022-12-23T10:26:34.487Z,69.51
2022-12-23T10:29:19.793Z,70.14
2022-12-23T10:32:05.235Z,70.30
2022-12-23T10:34:50.456Z,69.28
2022-12-23T10:37:35.346Z,68.92
2022-12-23T10:40:20.029Z,70.10
2022-12-23T10:43:04.763Z,70.20
2022-12-23T10:45:49.353Z,68.96
2022-12-23T10:48:34.123Z,69.92
2022-12-23T10:51:18.857Z,69.82
2022-12-23T10:54:03.640Z,69.13
2022-12-23T10:56:48.308Z,69.20
2022-12-23T10:59:33.089Z,68.87
2022-12-23T11:02:18.047Z,68.00
2022-12-23T11:05:03.133Z,67.80
2022-12-23T11:07:47.951Z,67.83
2022-12-23T11:10:32.677Z,67.89
2022-12-23T11:13:17.485Z,69.53
2022-12-23T11:16:02.091Z,68.93
2022-12-23T11:18:46.861Z,69.45
2022-12-23T11:21:31.589Z,69.75
2022-12-23T11:24:16.492Z,68.90
2022-12-23T11:27:01.184Z,68.49
2022-12-23T11:29:45.900Z,69.24
2022-12-23T11:32:30.778Z,71.27
2022-12-23T11:35:15.520Z,69.21
2022-12-23T11:38:00.189Z,70.55
2022-12-23T11:40:44.923Z,71.23
2022-12-23T11:43:29.656Z,71.17
2022-12-23T11:46:14.479Z,70.93
2022-12-23T11:48:59.808Z,70.45
2022-12-23T11:51:44.489Z,70.21
2022-12-23T11:54:29.243Z,71.13
2022-12-23T11:57:13.915Z,69.95
2022-12-23T11:59:59.140Z,70.15
2022-12-23T12:02:43.899Z,70.76
2022-12-23T12:05:28.612Z,70.62
2022-12-23T12:08:13.506Z,71.68
2022-12-23T12:10:58.243Z,71.19
2022-12-23T12:13:42.945Z,69.69
2022-12-23T12:16:27.692Z,70.42
2022-12-23T12:19:12.376Z,70.53
2022-12-23T12:21:57.001Z,70.49
2022-12-23T12:24:41.894Z,70.41
2022-12-23T12:27:26.713Z,70.26
2022-12-23T12:30:11.393Z,69.95
2022-12-23T12:32:56.356Z,69.58
2022-12-23T12:35:41.045Z,69.34
2022-12-23T12:38:25.852Z,69.12
2022-12-23T12:41:10.600Z,69.30
2022-12-23T12:43:55.420Z,69.23
2022-12-23T12:46:40.061Z,69.64
2022-12-23T12:49:24.827Z,69.90
2022-12-23T12:52:09.483Z,69.09
2022-12-23T12:54:54.441Z,69.34
2022-12-23T12:57:39.119Z,69.54
2022-12-23T13:00:24.050Z,69.63
2022-12-23T13:03:08.868Z,68.69
2022-12-23T13:05:54.643Z,68.99
2022-12-23T13:08:39.794Z,69.20
2022-12-23T13:11:28.345Z,69.54
2022-12-23T13:14:13.867Z,68.59
2022-12-23T13:16:58.693Z,69.81
2022-12-23T13:19:43.323Z,68.82
2022-12-23T13:22:28.209Z,69.21
2022-12-23T13:25:12.864Z,70.16
2022-12-23T13:27:57.619Z,70.50
2022-12-23T13:30:42.405Z,70.32
2022-12-23T13:33:27.111Z,70.23
2022-12-23T13:36:11.802Z,69.17
2022-12-23T13:38:56.341Z,69.04
2022-12-23T13:41:41.142Z,69.40
2022-12-23T13:44:26.271Z,69.22
2022-12-23T13:47:11.215Z,70.10
2022-12-23T13:49:56.062Z,69.69
2022-12-23T13:52:40.890Z,70.28
2022-12-23T13:55:26.012Z,69.41
2022-12-23T13:58:10.884Z,68.81
2022-12-23T14:00:55.668Z,69.13
2022-12-23T14:03:40.354Z,69.22
2022-12-23T14:06:25.211Z,69.65
2022-12-23T14:09:09.918Z,69.08
2022-12-23T14:11:56.277Z,68.54
2022-12-23T14:14:44.452Z,68.96
2022-12-23T14:17:29.157Z,69.27
2022-12-23T14:20:14.075Z,69.00
2022-12-23T14:22:58.842Z,70.42
2022-12-23T14:25:43.626Z,69.74
2022-12-23T14:28:28.224Z,69.51
2022-12-23T14:31:13.054Z,69.50
2022-12-23T14:33:57.646Z,69.75
2022-12-23T14:36:42.610Z,70.65
2022-12-23T14:39:27.754Z,69.36
2022-12-23T14:42:16.497Z,69.73
2022-12-23T14:45:01.846Z,70.18
2022-12-23T14:47:46.589Z,70.23
2022-12-23T14:50:31.453Z,69.91
2022-12-23T14:53:16.151Z,69.24
2022-12-23T14:56:00.970Z,68.87
2022-12-23T14:58:45.914Z,69.92
2022-12-23T15:01:30.762Z,70.27
2022-12-23T15:04:15.545Z,70.73
2022-12-23T15:07:00.302Z,70.22
2022-12-23T15:09:45.241Z,70.50
2022-12-23T15:12:29.940Z,69.95
2022-12-23T15:15:14.811Z,69.81
2022-12-23T15:17:59.398Z,69.87
2022-12-23T15:20:44.318Z,69.62
2022-12-23T15:23:29.105Z,69.94
2022-12-23T15:26:13.872Z,69.50
2022-12-23T15:28:58.581Z,69.38
2022-12-23T15:31:43.369Z,69.72
2022-12-23T15:34:28.176Z,69.83
2022-12-23T15:37:12.881Z,69.39
2022-12-23T15:40:06.172Z,69.42
2022-12-23T15:42:54.906Z,69.81
2022-12-23T15:45:39.739Z,69.58
2022-12-23T15:48:24.525Z,69.52
2022-12-23T15:51:09.531Z,69.10
2022-12-23T15:53:54.292Z,68.47
2022-12-23T15:56:39.056Z,69.51
2022-12-23T15:59:23.805Z,69.42
2022-12-23T16:02:32.166Z,70.02
2022-12-23T16:05:13.620Z,70.51
2022-12-23T16:07:58.250Z,69.86
2022-12-23T16:10:43.094Z,69.63
2022-12-23T16:13:27.854Z,69.20
2022-12-23T16:16:12.604Z,68.60
2022-12-23T16:18:57.325Z,68.81
2022-12-23T16:21:42.141Z,69.10
2022-12-23T16:24:26.951Z,69.85
2022-12-23T16:27:11.693Z,70.81
2022-12-23T16:29:56.477Z,70.45
2022-12-23T16:32:41.213Z,71.64
2022-12-23T16:35:26.554Z,70.70
2022-12-23T16:38:11.319Z,69.70
2022-12-23T16:40:56.177Z,69.36
2022-12-23T16:43:47.505Z,70.80
2022-12-23T16:46:36.905Z,70.29
2022-12-23T16:49:21.553Z,70.87
2022-12-23T16:52:06.356Z,70.39
2022-12-23T16:54:51.043Z,69.64
2022-12-23T16:57:35.939Z,69.18
2022-12-23T17:00:20.928Z,68.93
2022-12-23T17:03:05.688Z,68.67
2022-12-23T17:05:50.462Z,68.44
2022-12-23T17:08:35.315Z,69.05
2022-12-23T17:11:20.137Z,69.50
2022-12-23T17:14:09.125Z,69.77
2022-12-23T17:16:57.620Z,70.64
2022-12-23T17:19:43.162Z,68.90
2022-12-23T17:22:27.881Z,70.51
2022-12-23T17:25:12.647Z,69.85
2022-12-23T17:27:57.458Z,69.96
2022-12-23T17:30:42.245Z,69.32
2022-12-23T17:33:26.901Z,69.78
2022-12-23T17:36:11.819Z,69.15
2022-12-23T17:38:56.703Z,69.74
2022-12-23T17:41:41.444Z,72.11
2022-12-23T17:44:26.517Z,71.76
2022-12-23T17:47:11.329Z,70.71
2022-12-23T17:49:55.959Z,71.86
2022-12-23T17:52:40.750Z,71.58
2022-12-23T17:55:25.476Z,70.94
2022-12-23T17:58:10.222Z,71.62
2022-12-23T18:00:54.992Z,70.49
2022-12-23T18:03:39.818Z,69.95
2022-12-23T18:06:24.440Z,69.92
2022-12-23T18:09:09.447Z,70.69
2022-12-23T18:11:54.094Z,70.46
2022-12-23T18:14:38.957Z,71.24
2022-12-23T18:17:23.725Z,72.49
2022-12-23T18:20:08.490Z,72.55
2022-12-23T18:22:53.372Z,71.70
2022-12-23T18:25:38.064Z,73.14
2022-12-23T18:28:22.909Z,72.61
2022-12-23T18:31:07.670Z,71.84
2022-12-23T18:33:53.058Z,70.91
2022-12-23T18:36:37.892Z,71.71
2022-12-23T18:39:23.179Z,70.79
2022-12-23T18:42:07.887Z,70.73
2022-12-23T18:44:52.561Z,70.84
2022-12-23T18:47:37.814Z,71.72
2022-12-23T18:50:22.692Z,71.51
2022-12-23T18:53:07.482Z,71.96
2022-12-23T18:55:52.194Z,71.63
2022-12-23T18:58:36.938Z,71.00
2022-12-23T19:01:21.659Z,71.26
2022-12-23T19:04:06.428Z,70.23
2022-12-23T19:06:51.104Z,69.84
2022-12-23T19:09:35.984Z,69.89
2022-12-23T19:12:20.668Z,71.21
2022-12-23T19:15:05.493Z,72.28
2022-12-23T19:17:50.320Z,71.94
2022-12-23T19:20:35.076Z,70.38
2022-12-23T19:23:19.789Z,70.87
2022-12-23T19:26:04.517Z,71.36
2022-12-23T19:28:49.241Z,72.06
2022-12-23T19:31:34.298Z,71.24
2022-12-23T19:34:19.651Z,71.22
2022-12-23T19:37:04.511Z,70.50
2022-12-23T19:39:49.296Z,70.62
2022-12-23T19:42:34.055Z,70.69
2022-12-23T19:45:18.958Z,69.42
2022-12-23T19:48:04.365Z,69.04
2022-12-23T19:50:49.151Z,69.02
2022-12-23T19:53:33.883Z,69.44
2022-12-23T19:56:18.649Z,69.76
2022-12-23T19:59:03.469Z,69.04
2022-12-23T20:01:48.180Z,69.59
2022-12-23T20:04:33.427Z,68.26
2022-12-23T20:07:18.108Z,69.24
2022-12-23T20:10:02.877Z,69.95
2022-12-23T20:12:47.617Z,70.09
2022-12-23T20:15:32.461Z,71.20
2022-12-23T20:18:17.342Z,71.30
2022-12-23T20:21:02.423Z,71.23
2022-12-23T20:23:47.268Z,71.92
2022-12-23T20:26:31.997Z,71.75
2022-12-23T20:29:16.865Z,71.75
2022-12-23T20:32:01.637Z,76.60
2022-12-23T20:34:46.332Z,82.52
2022-12-23T20:37:31.015Z,76.54
2022-12-23T20:40:15.920Z,76.82
2022-12-23T20:43:00.590Z,70.53
2022-12-23T20:45:45.339Z,66.75
2022-12-23T20:48:33.969Z,63.49
2022-12-23T20:51:19.446Z,58.41
2022-12-23T20:54:04.244Z,57.24
2022-12-23T20:56:49.052Z,58.81
2022-12-23T20:59:34.007Z,60.72
2022-12-23T21:02:19.325Z,63.44
2022-12-23T21:05:04.606Z,64.70
2022-12-23T21:07:49.500Z,65.52
2022-12-23T21:10:34.228Z,66.57
2022-12-23T21:13:19.074Z,74.76
2022-12-23T21:16:03.877Z,67.77
2022-12-23T21:18:49.236Z,66.43
2022-12-23T21:21:33.974Z,67.29
2022-12-23T21:24:18.669Z,68.18
2022-12-23T21:27:03.542Z,70.00
2022-12-23T21:29:48.165Z,80.25
2022-12-23T21:32:32.961Z,71.62
2022-12-23T21:35:17.744Z,66.13
2022-12-23T21:38:02.616Z,63.44
2022-12-23T21:40:47.217Z,58.69
2022-12-23T21:43:31.985Z,57.89
2022-12-23T21:46:16.971Z,65.05
2022-12-23T21:49:02.125Z,64.56
2022-12-23T21:51:46.798Z,62.45
2022-12-23T21:54:31.517Z,67.80
2022-12-23T21:57:16.421Z,54.90
2022-12-23T22:00:01.125Z,65.57
2022-12-23T22:02:46.016Z,55.64
2022-12-23T22:05:30.601Z,57.42
2022-12-23T22:08:15.408Z,60.43
2022-12-23T22:11:00.066Z,60.75
2022-12-23T22:13:44.733Z,61.52
2022-12-23T22:16:29.685Z,63.75
2022-12-23T22:19:14.776Z,64.76
2022-12-23T22:21:59.570Z,65.25
2022-12-23T22:24:44.303Z,68.60
2022-12-23T22:27:29.153Z,68.39
2022-12-23T22:30:13.774Z,67.64
2022-12-23T22:32:58.494Z,65.33
2022-12-23T22:35:43.407Z,67.45
2022-12-23T22:38:28.433Z,68.07
2022-12-23T22:41:13.184Z,67.78
2022-12-23T22:43:57.869Z,68.42
2022-12-23T22:46:42.762Z,67.98
2022-12-23T22:49:27.878Z,66.92
2022-12-23T22:52:12.894Z,65.84
2022-12-23T22:54:57.698Z,64.88
2022-12-23T22:57:42.541Z,64.30
2022-12-23T23:00:27.125Z,64.56
2022-12-23T23:03:11.829Z,63.85
2022-12-23T23:05:56.624Z,63.81
2022-12-23T23:08:41.298Z,64.53
2022-12-23T23:11:26.026Z,63.35
2022-12-23T23:14:10.961Z,62.12
2022-12-23T23:16:55.744Z,63.44
2022-12-23T23:19:40.461Z,66.58
2022-12-23T23:22:25.590Z,67.01
2022-12-23T23:25:10.657Z,67.91
2022-12-23T23:27:55.522Z,69.01
2022-12-23T23:30:40.232Z,67.79
2022-12-23T23:33:25.023Z,66.98
2022-12-23T23:36:09.764Z,66.46
2022-12-23T23:38:54.746Z,67.53
2022-12-23T23:41:39.417Z,66.42
2022-12-23T23:44:24.179Z,66.35
2022-12-23T23:47:08.962Z,66.08
2022-12-23T23:49:53.688Z,66.34
2022-12-23T23:52:38.471Z,66.00
2022-12-23T23:55:23.238Z,65.45
2022-12-23T23:58:08.149Z,65.83
